CheckWX is a tool to help pilots better visualize weather data.  It is not intended as a substitute for an official pre-flight weather briefing.

16:13:56 UTC

KFOE METAR
Topeka Regional Airport
Topeka, Kansas, USA
Current

21 mins ago

KFOE 261553Z 12006KT 10SM CLR 23/18 A3007 RMK AO2 SLP173 T02280178
Observed
May-26 @ 15:53 UTC
Wind
  • 120° at 6 KTS
Visibility
10 SM
Flight Rules
VFR
Cloud Levels
  • Clear skies
Temperature
23°C / 73°F
Dewpoint
18°C / 64°F
Humidity
74%
Altimeter
30.07" Hg
Pressure
1018.32 hPa
Previous

1 hour ago

KFOE 261453Z 14005KT 10SM BKN060 BKN090 20/17 A3008 RMK AO2 SLP177 T02000172 50012
Observed
May-26 @ 14:53 UTC
Wind
  • 140° at 5 KTS
Visibility
10 SM
Flight Rules
VFR
Cloud Levels
  • Broken at 6,000' AGL
  • Broken at 9,000' AGL
Temperature
20°C / 68°F
Dewpoint
17°C / 63°F
Humidity
83%
Altimeter
30.08" Hg
Pressure
1018.62 hPa
Previous

2 hours ago

KFOE 261353Z 12004KT 10SM BKN080 BKN090 18/17 A3008 RMK AO2 SLP178 T01830167
Observed
May-26 @ 13:53 UTC
Wind
  • 120° at 4 KTS
Visibility
10 SM
Flight Rules
VFR
Cloud Levels
  • Broken at 8,000' AGL
  • Broken at 9,000' AGL
Temperature
18°C / 64°F
Dewpoint
17°C / 63°F
Humidity
94%
Altimeter
30.08" Hg
Pressure
1018.62 hPa